Terminal Aerodrome Forecast
Issued by NWS North Platte, NE

Home | Current Version | Previous Version | Text Only | Print | Product List | Glossary Off
Versions: 1 2 3 4 5 6 7 8 9 10 11 12 13 14 15 16 17 18 19 20 21

301
FTUS43 KLBF 201120
TAFVTN
TAF
KVTN 201120Z 2012/2112 36007KT P6SM SCT150
     FM201600 06008KT P6SM SCT150
     FM201800 09009KT P6SM BKN150
     FM210600 06008KT P6SM OVC100
     FM211000 06007KT 5SM -RASN OVC025=

USA.gov is the U.S. government's official web portal to all federal, state and local government web resources and services.